Time;durP1;ratioP1;P1;durP2;ratioP2;P2;SDS_P1;SDS_P2;PMS_P1;PMS_P2;Temp;Humidity;BMP_temperature;BMP_pressure;BME280_temperature;BME280_humidity;BME280_pressure;Samples;Min_cycle;Max_cycle;Signal;HPM_P1;HPM_P2
2022/10/07 00:01:00;;;;;;;7.28;1.92;;;9.60;99.90;;;;;;4844983;29;20189;-85
2022/10/07 00:03:26;;;;;;;6.43;1.90;;;9.60;99.90;;;;;;4843152;29;20563;-86
2022/10/07 00:06:05;;;;;;;8.75;1.73;;;9.60;99.90;;;;;;4844604;29;20181;-85
2022/10/07 00:08:33;;;;;;;7.60;2.15;;;9.70;99.90;;;;;;4845901;29;20248;-85
2022/10/07 00:11:07;;;;;;;7.40;1.60;;;9.60;99.90;;;;;;4844532;29;20197;-84
2022/10/07 00:13:35;;;;;;;5.10;1.45;;;9.70;99.90;;;;;;4844520;29;20626;-84
2022/10/07 00:16:09;;;;;;;5.47;1.60;;;9.70;99.90;;;;;;4845434;29;20220;-86
2022/10/07 00:18:37;;;;;;;9.18;1.67;;;9.70;99.90;;;;;;4845376;29;20185;-85
2022/10/07 00:21:10;;;;;;;8.50;1.95;;;9.70;99.90;;;;;;4860309;29;20510;-91
2022/10/07 00:23:37;;;;;;;7.03;1.70;;;9.70;99.90;;;;;;4860272;29;20198;-91
2022/10/07 00:26:05;;;;;;;6.47;1.52;;;9.60;99.90;;;;;;4845209;29;20193;-91
2022/10/07 00:28:32;;;;;;;9.52;1.75;;;9.60;99.90;;;;;;4845281;29;20181;-93
2022/10/07 00:31:01;;;;;;;6.57;1.67;;;9.70;99.90;;;;;;4844549;29;20189;-92
2022/10/07 00:33:30;;;;;;;8.18;2.25;;;9.60;99.90;;;;;;4859523;29;20204;-90
2022/10/07 00:35:56;;;;;;;4.75;1.75;;;9.60;99.90;;;;;;4845936;29;20217;-88
2022/10/07 00:38:22;;;;;;;5.43;1.70;;;9.60;99.90;;;;;;4844935;29;20212;-93
2022/10/07 00:40:53;;;;;;;10.32;1.90;;;9.60;99.90;;;;;;4846146;29;20225;-89
2022/10/07 00:43:25;;;;;;;5.75;1.65;;;9.60;99.90;;;;;;4844727;29;20185;-89
2022/10/07 00:45:54;;;;;;;4.88;1.42;;;9.50;99.90;;;;;;4844451;29;20539;-92
2022/10/07 00:48:25;;;;;;;6.28;1.70;;;9.50;99.90;;;;;;4844021;29;20237;-88
2022/10/07 00:50:55;;;;;;;7.40;1.80;;;9.40;99.90;;;;;;4846018;29;20169;-94
2022/10/07 00:53:23;;;;;;;12.13;1.90;;;9.50;99.90;;;;;;4860135;29;20189;-92
2022/10/07 00:55:49;;;;;;;6.30;1.65;;;9.50;99.90;;;;;;4860234;29;20687;-91
2022/10/07 00:58:15;;;;;;;6.90;1.60;;;9.40;99.90;;;;;;4860044;29;20181;-91
2022/10/07 01:00:41;;;;;;;6.55;1.70;;;9.40;99.90;;;;;;4860014;29;20189;-91
2022/10/07 01:03:07;;;;;;;7.78;1.60;;;9.40;99.90;;;;;;4859960;29;20643;-84
2022/10/07 01:05:33;;;;;;;10.15;2.10;;;9.30;99.90;;;;;;4860282;29;20185;-90
2022/10/07 01:08:00;;;;;;;9.07;2.10;;;9.30;99.90;;;;;;4859924;29;20185;-91
2022/10/07 01:10:34;;;;;;;10.07;1.73;;;9.30;99.90;;;;;;4860033;29;20211;-92
2022/10/07 01:13:09;;;;;;;13.63;2.05;;;9.30;99.90;;;;;;4859978;29;20176;-94
2022/10/07 01:15:53;;;;;;;6.33;1.80;;;9.30;99.90;;;;;;4859599;29;20269;-88
2022/10/07 01:18:34;;;;;;;4.13;1.65;;;9.30;99.90;;;;;;4859712;29;20208;-91
2022/10/07 01:21:13;;;;;;;6.80;1.92;;;9.30;99.90;;;;;;4859936;29;20238;-91
2022/10/07 01:24:07;;;;;;;6.82;1.50;;;9.30;99.90;;;;;;4845723;29;20174;-90
2022/10/07 01:26:36;;;;;;;4.93;1.70;;;9.20;99.90;;;;;;4859714;29;20193;-85
2022/10/07 01:29:12;;;;;;;10.95;1.67;;;9.20;99.90;;;;;;4858868;29;20593;-84
2022/10/07 01:32:11;;;;;;;9.00;1.45;;;9.20;99.90;;;;;;4844539;29;20182;-84
2022/10/07 01:34:39;;;;;;;7.80;1.60;;;9.20;99.90;;;;;;4831982;29;20641;-87
2022/10/07 01:37:10;;;;;;;10.80;1.80;;;9.20;99.90;;;;;;4843298;29;20229;-86
2022/10/07 01:39:42;;;;;;;6.30;1.40;;;9.20;99.90;;;;;;4844636;29;20260;-90
2022/10/07 01:42:09;;;;;;;11.10;2.05;;;9.20;99.90;;;;;;4857723;29;20575;-84
2022/10/07 01:44:37;;;;;;;5.80;1.50;;;9.20;99.90;;;;;;4858469;29;20212;-84
2022/10/07 01:47:03;;;;;;;5.53;1.40;;;9.20;99.90;;;;;;4842594;29;20189;-84
2022/10/07 01:49:29;;;;;;;8.10;1.73;;;9.20;99.90;;;;;;4858260;29;20239;-84
2022/10/07 01:52:23;;;;;;;10.77;1.98;;;9.20;99.90;;;;;;4858744;29;20201;-86
2022/10/07 01:55:09;;;;;;;7.27;1.60;;;9.10;99.90;;;;;;4858270;29;20212;-85
2022/10/07 01:58:05;;;;;;;8.63;1.55;;;9.10;99.90;;;;;;4858125;29;20296;-84
2022/10/07 02:00:49;;;;;;;6.38;1.63;;;9.00;99.90;;;;;;4858255;29;20269;-85
2022/10/07 02:03:45;;;;;;;5.55;1.40;;;8.90;99.90;;;;;;4857450;29;20265;-84
2022/10/07 02:06:39;;;;;;;9.73;1.50;;;8.90;99.90;;;;;;4843894;29;20174;-90
2022/10/07 02:09:26;;;;;;;6.82;1.80;;;8.80;99.90;;;;;;4858021;29;20188;-85
2022/10/07 02:11:59;;;;;;;4.22;1.35;;;8.80;99.90;;;;;;4858014;29;20252;-84
2022/10/07 02:14:37;;;;;;;6.55;1.55;;;8.90;99.90;;;;;;4843772;29;20257;-86
2022/10/07 02:17:10;;;;;;;10.43;1.80;;;8.80;99.90;;;;;;4843745;29;20212;-84
2022/10/07 02:19:42;;;;;;;5.60;1.30;;;8.90;99.90;;;;;;4857565;29;20527;-83
2022/10/07 02:22:12;;;;;;;4.15;1.58;;;8.90;99.90;;;;;;4857811;29;20185;-86
2022/10/07 02:24:39;;;;;;;8.02;1.60;;;8.90;99.90;;;;;;4843698;29;20174;-84
2022/10/07 02:27:15;;;;;;;5.50;1.60;;;8.90;99.90;;;;;;4844023;29;20185;-84
2022/10/07 02:29:41;;;;;;;4.65;1.40;;;8.90;99.90;;;;;;4857739;29;20185;-85
2022/10/07 02:32:12;;;;;;;5.10;1.57;;;8.90;99.90;;;;;;4842317;29;20184;-84
2022/10/07 02:34:42;;;;;;;6.27;1.40;;;8.80;99.90;;;;;;4857320;29;20191;-84
2022/10/07 02:37:16;;;;;;;3.83;1.50;;;8.80;99.90;;;;;;4843473;29;20265;-84
2022/10/07 02:39:45;;;;;;;6.95;1.55;;;8.80;99.90;;;;;;4843698;29;20161;-84
2022/10/07 02:42:34;;;;;;;5.27;1.10;;;8.80;99.90;;;;;;4843644;29;20189;-88
2022/10/07 02:45:27;;;;;;;3.83;1.38;;;8.80;99.90;;;;;;4857386;29;20253;-83
2022/10/07 02:48:17;;;;;;;8.80;1.63;;;8.80;99.90;;;;;;4843747;29;20233;-84
2022/10/07 02:50:47;;;;;;;4.00;1.40;;;8.80;99.90;;;;;;4845137;29;20188;-84
2022/10/07 02:53:13;;;;;;;6.47;1.60;;;8.80;99.90;;;;;;4860668;29;20188;-85
2022/10/07 02:55:43;;;;;;;5.70;1.40;;;8.80;99.90;;;;;;4861612;29;20301;-85
2022/10/07 02:58:11;;;;;;;6.93;1.80;;;8.80;99.90;;;;;;4862018;29;20625;-88
2022/10/07 03:00:41;;;;;;;8.18;1.48;;;8.80;99.90;;;;;;4860402;29;20189;-87
2022/10/07 03:03:07;;;;;;;7.25;1.38;;;8.80;99.90;;;;;;4860925;29;20189;-84
2022/10/07 03:05:34;;;;;;;3.17;1.58;;;8.80;99.90;;;;;;4860173;29;20628;-86
2022/10/07 03:08:06;;;;;;;8.98;2.03;;;8.80;99.90;;;;;;4861536;29;20237;-84
2022/10/07 03:10:32;;;;;;;9.95;1.38;;;8.80;99.90;;;;;;4860434;29;20188;-85
2022/10/07 03:12:58;;;;;;;6.03;1.60;;;8.80;99.90;;;;;;4860231;29;20173;-85
2022/10/07 03:15:24;;;;;;;6.10;1.60;;;8.80;99.90;;;;;;4860163;29;20252;-84
2022/10/07 03:17:50;;;;;;;4.22;1.27;;;8.80;99.90;;;;;;4859965;29;20188;-85
2022/10/07 03:20:16;;;;;;;6.40;1.80;;;8.80;99.90;;;;;;4861396;29;20187;-87
2022/10/07 03:22:43;;;;;;;3.75;1.40;;;8.80;99.90;;;;;;4861002;29;20189;-88
2022/10/07 03:25:10;;;;;;;8.50;1.80;;;8.80;99.90;;;;;;4861152;29;20181;-84
2022/10/07 03:27:35;;;;;;;5.78;1.42;;;8.70;99.90;;;;;;4861552;29;20652;-84
2022/10/07 03:30:01;;;;;;;6.25;1.58;;;8.80;99.90;;;;;;4861565;29;20184;-90
2022/10/07 03:32:27;;;;;;;8.45;1.67;;;8.70;99.90;;;;;;4859742;29;20220;-84
2022/10/07 03:34:54;;;;;;;6.00;1.63;;;8.80;99.90;;;;;;4844581;29;20222;-84
2022/10/07 03:37:23;;;;;;;5.55;1.33;;;8.70;99.90;;;;;;4861074;29;20236;-85
2022/10/07 03:39:49;;;;;;;10.90;1.90;;;8.70;99.90;;;;;;4844819;29;20208;-84
2022/10/07 03:42:15;;;;;;;12.03;1.50;;;8.70;99.90;;;;;;4844450;29;20192;-85
2022/10/07 03:44:41;;;;;;;3.88;1.25;;;8.70;99.90;;;;;;4861283;29;20188;-84
2022/10/07 03:47:07;;;;;;;5.77;1.77;;;8.70;99.90;;;;;;4844603;29;20221;-91
2022/10/07 03:49:34;;;;;;;6.18;1.27;;;8.70;99.90;;;;;;4842478;29;20252;-84
2022/10/07 03:52:01;;;;;;;4.90;1.30;;;8.70;99.90;;;;;;4826430;29;20181;-84
2022/10/07 03:54:27;;;;;;;6.57;1.70;;;8.70;99.90;;;;;;4826168;29;20601;-85
2022/10/07 03:56:53;;;;;;;6.35;1.50;;;8.70;99.90;;;;;;4842760;29;20241;-84
2022/10/07 03:59:19;;;;;;;8.85;1.40;;;8.70;99.90;;;;;;4831055;29;20632;-85
2022/10/07 04:01:45;;;;;;;12.75;1.73;;;8.70;99.90;;;;;;4859707;29;20533;-84
2022/10/07 04:04:11;;;;;;;4.68;1.58;;;8.60;99.90;;;;;;4859837;29;20185;-84
2022/10/07 04:06:37;;;;;;;9.90;1.85;;;8.70;99.90;;;;;;4862433;29;20275;-85
2022/10/07 04:09:04;;;;;;;6.03;1.60;;;8.60;99.90;;;;;;4864425;29;20180;-84
2022/10/07 04:11:30;;;;;;;4.45;1.50;;;8.60;99.90;;;;;;4856319;29;20213;-84
2022/10/07 04:13:59;;;;;;;8.18;2.17;;;8.60;99.90;;;;;;4845836;29;20184;-85
2022/10/07 04:16:25;;;;;;;5.35;1.50;;;8.50;99.90;;;;;;4829036;29;20247;-83
2022/10/07 04:18:54;;;;;;;7.00;1.50;;;8.50;99.90;;;;;;4834716;29;20187;-86
2022/10/07 04:21:21;;;;;;;6.75;1.60;;;8.50;99.90;;;;;;4862800;29;20568;-83
2022/10/07 04:23:47;;;;;;;4.22;1.70;;;8.50;99.90;;;;;;4863991;29;20173;-88
2022/10/07 04:26:12;;;;;;;6.15;1.63;;;8.50;99.90;;;;;;4862210;29;20275;-85
2022/10/07 04:28:38;;;;;;;5.82;1.52;;;8.40;99.90;;;;;;4864204;29;20177;-85
2022/10/07 04:31:07;;;;;;;4.15;1.48;;;8.40;99.90;;;;;;4863801;29;20184;-84
2022/10/07 04:33:33;;;;;;;4.65;1.40;;;8.40;99.90;;;;;;4846786;29;20185;-84
2022/10/07 04:36:04;;;;;;;4.10;1.40;;;8.40;99.90;;;;;;4847108;29;20282;-84
2022/10/07 04:38:31;;;;;;;6.85;1.80;;;8.30;99.90;;;;;;4863787;29;20205;-83
2022/10/07 04:41:01;;;;;;;6.10;1.60;;;8.30;99.90;;;;;;4847088;29;20177;-85
2022/10/07 04:43:32;;;;;;;5.83;1.30;;;8.30;99.90;;;;;;4846452;29;20181;-85
2022/10/07 04:46:04;;;;;;;8.20;1.77;;;8.30;99.90;;;;;;4862322;29;20185;-84
2022/10/07 04:48:30;;;;;;;6.40;1.85;;;8.20;99.90;;;;;;4863409;29;20702;-84
2022/10/07 04:51:01;;;;;;;5.53;1.30;;;8.20;99.90;;;;;;4847003;29;20189;-85
2022/10/07 04:53:27;;;;;;;7.97;1.50;;;8.20;99.90;;;;;;4862186;29;20181;-84
2022/10/07 04:55:53;;;;;;;7.43;1.53;;;8.20;99.90;;;;;;4862007;29;20220;-84
2022/10/07 04:58:19;;;;;;;6.43;1.77;;;8.20;99.90;;;;;;4862504;29;20220;-88
2022/10/07 05:00:50;;;;;;;5.27;1.63;;;8.10;99.90;;;;;;4862173;29;20185;-85
2022/10/07 05:03:17;;;;;;;6.70;1.60;;;8.10;99.90;;;;;;4845701;29;20207;-84
2022/10/07 05:05:44;;;;;;;6.27;1.60;;;8.10;99.90;;;;;;4862972;29;20200;-85
2022/10/07 05:08:11;;;;;;;7.13;1.70;;;8.10;99.90;;;;;;4862190;29;20261;-84
2022/10/07 05:10:38;;;;;;;5.37;1.20;;;8.10;99.90;;;;;;4846298;29;20206;-83
2022/10/07 05:13:06;;;;;;;5.83;1.93;;;8.10;99.90;;;;;;4846355;29;20192;-83
2022/10/07 05:15:32;;;;;;;5.67;1.77;;;8.10;99.90;;;;;;4863015;29;20177;-83
2022/10/07 05:17:58;;;;;;;3.23;1.40;;;8.10;99.90;;;;;;4845835;29;20197;-83
2022/10/07 05:20:25;;;;;;;8.03;2.00;;;8.10;99.90;;;;;;4860918;29;20185;-83
2022/10/07 05:22:51;;;;;;;5.10;1.73;;;8.20;99.90;;;;;;4862568;29;20623;-83
2022/10/07 05:25:18;;;;;;;5.33;1.60;;;8.10;99.90;;;;;;4862878;29;20177;-83
2022/10/07 05:27:44;;;;;;;5.33;1.80;;;8.10;99.90;;;;;;4863038;29;20672;-84
2022/10/07 05:30:10;;;;;;;7.03;1.77;;;8.00;99.90;;;;;;4861687;29;20188;-84
2022/10/07 05:32:36;;;;;;;6.67;1.63;;;8.00;99.90;;;;;;4860822;29;20613;-84
2022/10/07 05:35:02;;;;;;;6.87;1.40;;;7.90;99.90;;;;;;4862376;29;20264;-85
2022/10/07 05:37:28;;;;;;;5.87;1.27;;;7.90;99.90;;;;;;4845907;29;20223;-84
2022/10/07 05:39:54;;;;;;;5.23;1.50;;;8.00;99.90;;;;;;4846128;29;20217;-83
2022/10/07 05:42:20;;;;;;;4.87;1.40;;;8.00;99.90;;;;;;4851562;29;20220;-85
2022/10/07 05:44:46;;;;;;;4.10;1.23;;;8.00;99.90;;;;;;4879990;29;20196;-87
2022/10/07 05:47:12;;;;;;;6.97;1.73;;;8.10;99.90;;;;;;4881107;29;20183;-84
2022/10/07 05:49:40;;;;;;;7.83;2.00;;;8.10;99.90;;;;;;4879458;29;20240;-83
2022/10/07 05:52:06;;;;;;;7.70;1.80;;;8.10;99.90;;;;;;4879544;29;20200;-83
2022/10/07 05:54:32;;;;;;;11.93;2.13;;;8.10;99.90;;;;;;4877909;29;20216;-86
2022/10/07 05:56:59;;;;;;;3.80;1.70;;;8.10;99.90;;;;;;4860790;29;20220;-84
2022/10/07 05:59:24;;;;;;;3.63;1.30;;;8.10;99.90;;;;;;4862453;29;20176;-85
2022/10/07 06:01:50;;;;;;;4.43;1.60;;;8.10;99.90;;;;;;4860750;29;20613;-83
2022/10/07 06:04:18;;;;;;;10.17;2.13;;;8.20;99.90;;;;;;4860906;29;20616;-83
2022/10/07 06:06:43;;;;;;;5.53;1.30;;;8.20;99.90;;;;;;4845349;29;20581;-82
2022/10/07 06:14:46;;;;;;;5.97;1.57;;;8.30;99.90;;;;;;4833384;29;20200;-83
2022/10/07 06:17:11;;;;;;;4.10;1.50;;;8.30;99.90;;;;;;4845461;29;20354;-86
2022/10/07 06:19:37;;;;;;;4.93;1.52;;;8.30;99.90;;;;;;4861935;29;20216;-83
2022/10/07 06:22:03;;;;;;;4.33;1.40;;;8.40;99.90;;;;;;4861712;29;20180;-83
2022/10/07 06:24:30;;;;;;;3.67;1.73;;;8.30;99.90;;;;;;4861847;29;20168;-83
2022/10/07 06:26:56;;;;;;;6.50;1.50;;;8.30;99.90;;;;;;4845245;29;20221;-83
2022/10/07 06:29:21;;;;;;;5.07;1.58;;;8.40;99.90;;;;;;4861446;29;20490;-87
2022/10/07 06:31:47;;;;;;;4.30;1.40;;;8.40;99.90;;;;;;4868802;29;20187;-86
2022/10/07 06:34:13;;;;;;;6.30;1.83;;;8.40;99.90;;;;;;4861042;29;20188;-90
2022/10/07 06:36:38;;;;;;;2.97;1.52;;;8.50;99.90;;;;;;4863781;29;20240;-83
2022/10/07 06:39:04;;;;;;;4.65;1.55;;;8.50;99.90;;;;;;4862742;29;20251;-88
2022/10/07 06:41:30;;;;;;;8.30;1.80;;;8.60;99.90;;;;;;4846031;29;20188;-89
2022/10/07 06:43:57;;;;;;;8.70;1.90;;;8.60;99.90;;;;;;4866023;29;20187;-90
2022/10/07 06:46:22;;;;;;;5.60;1.80;;;8.70;99.90;;;;;;4875964;29;20183;-89
2022/10/07 06:48:49;;;;;;;11.25;1.50;;;8.70;99.90;;;;;;4880501;29;20235;-88
2022/10/07 06:51:17;;;;;;;5.55;1.50;;;8.80;99.90;;;;;;4861733;29;20391;-88
2022/10/07 06:53:44;;;;;;;5.47;1.33;;;8.90;99.90;;;;;;4861372;29;20574;-92
2022/10/07 06:56:13;;;;;;;4.47;1.47;;;9.00;99.90;;;;;;4860890;29;20611;-89
2022/10/07 06:58:39;;;;;;;6.93;1.75;;;9.00;99.90;;;;;;4861184;29;20189;-92
2022/10/07 07:01:04;;;;;;;6.55;1.73;;;9.10;99.90;;;;;;4860902;29;20594;-87
2022/10/07 07:03:31;;;;;;;7.10;1.73;;;9.20;99.90;;;;;;4860665;29;20227;-89
2022/10/07 07:05:57;;;;;;;8.20;1.98;;;9.20;99.90;;;;;;4861183;29;20181;-86
2022/10/07 07:08:27;;;;;;;8.43;1.77;;;9.30;99.90;;;;;;4845803;29;20195;-87
2022/10/07 07:10:54;;;;;;;5.00;1.42;;;9.40;99.90;;;;;;4845852;29;20492;-90
2022/10/07 07:13:21;;;;;;;5.90;2.10;;;9.50;99.90;;;;;;4861833;29;20257;-94
2022/10/07 07:15:57;;;;;;;4.82;1.70;;;9.50;99.90;;;;;;4845470;29;20208;-93
2022/10/07 07:18:23;;;;;;;7.97;1.77;;;9.60;99.90;;;;;;4862416;29;20180;-90
2022/10/07 07:20:49;;;;;;;8.57;1.70;;;9.70;99.90;;;;;;4872247;29;20285;-93
2022/10/07 07:23:19;;;;;;;10.73;2.30;;;9.80;99.90;;;;;;4862203;29;20188;-90
2022/10/07 07:25:44;;;;;;;5.78;1.83;;;9.90;99.90;;;;;;4862258;29;20565;-90
2022/10/07 07:28:13;;;;;;;7.43;1.92;;;9.90;99.90;;;;;;4861166;29;20180;-83
2022/10/07 07:30:39;;;;;;;6.30;1.70;;;10.00;99.90;;;;;;4860973;29;20184;-85
2022/10/07 07:33:05;;;;;;;8.63;1.67;;;10.00;99.90;;;;;;4860227;29;20268;-86
2022/10/07 07:35:34;;;;;;;7.28;1.80;;;10.10;99.90;;;;;;4858598;29;20586;-88
2022/10/07 07:38:00;;;;;;;8.90;1.50;;;10.10;99.90;;;;;;4860848;29;20185;-86
2022/10/07 07:40:26;;;;;;;8.13;1.75;;;10.20;99.90;;;;;;4861944;29;20180;-84
2022/10/07 07:42:56;;;;;;;5.47;1.83;;;10.30;99.90;;;;;;4875863;29;20654;-86
2022/10/07 07:45:23;;;;;;;5.40;1.77;;;10.30;99.90;;;;;;4883137;29;20168;-84
2022/10/07 07:47:49;;;;;;;7.05;1.80;;;10.40;99.90;;;;;;4883013;29;20180;-83
2022/10/07 07:50:17;;;;;;;6.13;1.98;;;10.50;99.90;;;;;;4883443;29;20172;-85
2022/10/07 07:52:43;;;;;;;8.50;1.38;;;10.50;99.90;;;;;;4882092;29;20589;-83
2022/10/07 07:55:09;;;;;;;4.05;1.35;;;10.60;99.90;;;;;;4882947;29;20264;-84
2022/10/07 07:57:35;;;;;;;7.60;1.60;;;10.60;99.90;;;;;;4868669;29;20235;-87
2022/10/07 08:00:04;;;;;;;6.07;1.63;;;10.70;99.90;;;;;;4862627;29;20279;-84
2022/10/07 08:02:30;;;;;;;10.38;1.50;;;10.70;99.90;;;;;;4847994;29;20271;-84
2022/10/07 08:04:56;;;;;;;7.30;1.48;;;10.80;99.90;;;;;;4846604;29;20525;-83
2022/10/07 08:07:21;;;;;;;8.30;1.30;;;10.80;99.90;;;;;;4863271;29;20187;-83
2022/10/07 08:09:48;;;;;;;4.60;1.40;;;10.90;99.90;;;;;;4847548;29;20279;-84
2022/10/07 08:12:14;;;;;;;7.15;1.17;;;11.00;99.90;;;;;;4863639;29;20177;-84
2022/10/07 08:14:40;;;;;;;4.85;1.08;;;11.00;99.90;;;;;;4847378;29;20217;-85
2022/10/07 08:17:05;;;;;;;6.88;1.42;;;11.10;99.90;;;;;;4863174;29;20220;-86
2022/10/07 08:19:31;;;;;;;8.55;1.42;;;11.10;99.90;;;;;;4864189;29;20264;-84
2022/10/07 08:21:57;;;;;;;8.32;1.50;;;11.20;99.90;;;;;;4864153;29;20179;-85
2022/10/07 08:24:24;;;;;;;6.85;2.03;;;11.30;99.90;;;;;;4862802;29;20212;-83
2022/10/07 08:26:52;;;;;;;5.40;1.63;;;11.40;99.90;;;;;;4863603;29;20185;-85
2022/10/07 08:29:19;;;;;;;7.57;1.52;;;11.40;99.90;;;;;;4863615;29;20228;-86
2022/10/07 08:31:45;;;;;;;7.32;1.80;;;11.50;99.90;;;;;;4862324;29;20196;-84
2022/10/07 08:34:11;;;;;;;5.95;1.85;;;11.50;99.90;;;;;;4861524;29;20271;-83
2022/10/07 08:36:37;;;;;;;11.85;2.00;;;11.60;99.90;;;;;;4861155;29;20652;-85
2022/10/07 08:39:03;;;;;;;9.20;1.65;;;11.60;99.90;;;;;;4862247;29;20207;-85
2022/10/07 08:41:54;;;;;;;7.05;1.73;;;11.70;99.90;;;;;;4845546;29;20185;-85
2022/10/07 08:44:25;;;;;;;6.78;1.65;;;11.80;99.90;;;;;;4862430;29;20553;-84
2022/10/07 08:47:29;;;;;;;6.20;1.63;;;11.90;99.90;;;;;;4863365;29;20183;-84
2022/10/07 08:50:15;;;;;;;8.95;1.77;;;11.90;99.90;;;;;;4846532;29;20331;-85
2022/10/07 08:52:45;;;;;;;5.95;1.75;;;12.00;99.90;;;;;;4846812;29;20184;-84
2022/10/07 08:55:20;;;;;;;12.13;1.63;;;12.10;99.90;;;;;;4863569;29;20185;-85
2022/10/07 08:58:10;;;;;;;8.10;2.00;;;12.10;99.90;;;;;;4873726;29;20671;-84
2022/10/07 09:00:46;;;;;;;7.68;1.98;;;12.20;99.90;;;;;;4862501;29;20195;-84
2022/10/07 09:03:35;;;;;;;6.20;1.90;;;12.30;99.90;;;;;;4863767;29;20173;-86
2022/10/07 09:06:06;;;;;;;10.13;1.92;;;12.40;99.90;;;;;;4852081;29;20900;-87
2022/10/07 09:08:39;;;;;;;7.40;1.48;;;12.40;99.90;;;;;;4844916;29;20174;-84
2022/10/07 09:11:18;;;;;;;8.85;2.42;;;12.50;99.90;;;;;;4845070;29;20161;-84
2022/10/07 09:13:51;;;;;;;7.47;1.90;;;12.50;99.90;;;;;;4843573;29;20260;-84
2022/10/07 09:16:29;;;;;;;6.05;2.03;;;12.60;99.90;;;;;;4828528;29;20266;-84
2022/10/07 09:18:58;;;;;;;7.68;2.15;;;12.70;99.90;;;;;;4844740;29;20900;-84
2022/10/07 09:22:04;;;;;;;8.02;1.70;;;12.80;99.90;;;;;;4850539;29;20191;-85
2022/10/07 09:24:30;;;;;;;6.88;1.88;;;12.90;99.90;;;;;;4815757;29;20199;-83
2022/10/07 09:26:59;;;;;;;9.90;1.70;;;12.90;99.90;;;;;;4846334;29;20185;-86
2022/10/07 09:29:27;;;;;;;5.30;1.83;;;13.00;99.90;;;;;;4861240;29;20208;-90
2022/10/07 09:31:54;;;;;;;9.30;1.95;;;13.10;99.90;;;;;;4862655;29;20185;-83
2022/10/07 09:34:26;;;;;;;5.22;1.55;;;13.20;99.90;;;;;;4862992;29;20177;-85
2022/10/07 09:37:26;;;;;;;7.93;2.28;;;13.20;99.90;;;;;;4862749;29;20268;-84
2022/10/07 09:39:56;;;;;;;6.35;1.45;;;13.30;99.90;;;;;;4862788;29;20216;-86
2022/10/07 09:42:33;;;;;;;7.63;1.90;;;13.40;99.90;;;;;;4862800;29;20226;-85
2022/10/07 09:45:17;;;;;;;4.05;1.75;;;13.50;99.90;;;;;;4862035;29;20667;-84
2022/10/07 09:47:48;;;;;;;11.98;1.58;;;13.60;99.90;;;;;;4860976;29;20184;-84
2022/10/07 09:50:32;;;;;;;6.68;1.70;;;13.60;99.90;;;;;;4863121;29;20263;-87
2022/10/07 09:52:59;;;;;;;7.03;1.50;;;13.70;99.90;;;;;;4846176;29;20189;-85
2022/10/07 09:55:40;;;;;;;5.82;1.60;;;13.80;99.90;;;;;;4862903;29;20184;-90
2022/10/07 09:58:15;;;;;;;7.20;1.60;;;13.90;99.90;;;;;;4861634;29;20203;-89
2022/10/07 10:00:44;;;;;;;7.75;1.73;;;14.00;99.90;;;;;;4862731;29;20197;-85
2022/10/07 10:03:12;;;;;;;11.93;1.90;;;14.10;99.90;;;;;;4844053;29;20216;-86
2022/10/07 10:05:58;;;;;;;9.48;1.70;;;14.10;99.90;;;;;;4879382;29;20191;-84
2022/10/07 10:08:27;;;;;;;9.68;1.85;;;14.20;99.90;;;;;;4879663;29;20244;-83
2022/10/07 10:11:18;;;;;;;7.80;1.42;;;14.30;99.90;;;;;;4880813;29;20175;-83
2022/10/07 10:13:47;;;;;;;5.85;1.13;;;14.50;99.90;;;;;;4839058;29;20193;-83
2022/10/07 10:16:29;;;;;;;7.18;1.50;;;14.60;99.90;;;;;;4843610;29;20232;-84
2022/10/07 10:18:57;;;;;;;7.25;1.20;;;14.70;99.90;;;;;;4844053;29;20173;-85
2022/10/07 10:21:34;;;;;;;5.57;1.20;;;14.80;99.90;;;;;;4843900;29;20208;-84
2022/10/07 10:24:05;;;;;;;10.77;1.23;;;14.90;99.90;;;;;;4843452;29;20168;-82
2022/10/07 10:27:11;;;;;;;6.72;1.63;;;15.00;99.90;;;;;;4843902;29;20178;-84
2022/10/07 10:30:00;;;;;;;11.07;1.48;;;15.10;99.90;;;;;;4827253;29;20643;-86
2022/10/07 10:32:38;;;;;;;9.85;1.55;;;15.10;99.90;;;;;;4842927;29;20195;-93
2022/10/07 10:35:23;;;;;;;6.88;1.10;;;15.10;99.90;;;;;;4842512;29;20181;-82
2022/10/07 10:38:32;;;;;;;3.78;1.10;;;15.20;99.90;;;;;;4843340;29;20712;-82
2022/10/07 10:41:45;;;;;;;7.43;1.42;;;15.40;99.90;;;;;;4822932;29;20197;-83
2022/10/07 10:44:20;;;;;;;12.43;1.60;;;15.50;99.90;;;;;;4830077;29;20219;-90
2022/10/07 10:46:58;;;;;;;6.93;1.40;;;15.60;99.90;;;;;;4842644;29;20192;-91
2022/10/07 10:49:57;;;;;;;11.25;1.63;;;15.70;99.90;;;;;;4843222;29;20240;-84
2022/10/07 10:52:48;;;;;;;8.43;1.50;;;15.80;99.90;;;;;;4842431;29;20720;-83
2022/10/07 10:55:33;;;;;;;5.63;1.33;;;15.80;99.90;;;;;;4848445;29;20191;-84
2022/10/07 10:58:36;;;;;;;5.82;1.08;;;15.90;99.90;;;;;;4871650;29;20204;-85
2022/10/07 11:01:27;;;;;;;7.22;1.42;;;15.90;99.90;;;;;;4861730;29;20259;-83
2022/10/07 11:04:31;;;;;;;5.40;1.25;;;15.90;99.90;;;;;;4859772;29;20208;-83
2022/10/07 11:07:06;;;;;;;8.38;1.60;;;16.00;99.90;;;;;;4861710;29;20180;-84
2022/10/07 11:09:45;;;;;;;6.35;1.40;;;16.10;99.90;;;;;;4861708;29;20169;-83
2022/10/07 11:12:42;;;;;;;3.95;1.10;;;16.10;99.90;;;;;;4861943;29;20180;-88
2022/10/07 11:15:26;;;;;;;7.90;1.17;;;16.10;99.90;;;;;;4846863;29;20184;-84
2022/10/07 11:17:56;;;;;;;6.95;1.65;;;16.10;99.90;;;;;;4866025;29;20212;-85
2022/10/07 11:20:35;;;;;;;8.32;1.52;;;16.10;99.90;;;;;;4849088;29;20185;-86
2022/10/07 12:02:03;;;;;;;5.57;1.10;;;16.80;99.50;;;;;;5842689;24;20268;-94
2022/10/07 12:04:29;;;;;;;3.35;0.93;;;17.00;99.80;;;;;;4821120;29;20213;-93
2022/10/07 12:07:33;;;;;;;13.25;1.85;;;17.00;99.60;;;;;;4827226;29;20194;-92
2022/10/07 12:10:02;;;;;;;7.50;1.27;;;16.90;98.90;;;;;;4827487;29;20292;-93
2022/10/07 12:12:45;;;;;;;4.95;1.23;;;16.80;99.00;;;;;;4831062;29;20209;-94
2022/10/07 12:15:32;;;;;;;6.30;1.30;;;16.90;99.40;;;;;;4825977;29;20246;-93
2022/10/07 12:18:04;;;;;;;8.20;1.48;;;17.00;99.40;;;;;;4824546;29;20221;-96
2022/10/07 12:20:36;;;;;;;6.28;1.25;;;17.10;99.80;;;;;;4833449;29;20194;-92
2022/10/07 12:23:37;;;;;;;8.82;1.15;;;17.30;99.30;;;;;;4829952;29;20194;-94
2022/10/07 12:26:23;;;;;;;10.82;1.70;;;17.30;98.30;;;;;;4835129;29;20225;-89
2022/10/07 12:28:50;;;;;;;7.70;1.20;;;17.50;99.70;;;;;;4828925;29;20250;-89
2022/10/07 12:31:21;;;;;;;6.20;1.25;;;17.50;98.10;;;;;;4838480;29;20205;-93
2022/10/07 12:34:08;;;;;;;9.35;1.60;;;17.40;98.00;;;;;;4828927;29;20269;-91
2022/10/07 12:36:34;;;;;;;5.55;1.45;;;17.30;97.80;;;;;;4830972;29;20204;-94
2022/10/07 12:39:02;;;;;;;5.00;1.20;;;17.20;97.60;;;;;;4816212;29;20243;-92
2022/10/07 12:41:42;;;;;;;4.10;1.20;;;17.10;97.80;;;;;;4829871;29;20185;-94
2022/10/07 12:44:17;;;;;;;6.05;1.30;;;17.20;97.60;;;;;;4828621;29;20190;-94
2022/10/07 12:46:51;;;;;;;9.35;1.42;;;17.20;98.30;;;;;;4828210;29;20199;-95
2022/10/07 12:49:28;;;;;;;5.18;1.10;;;17.20;98.20;;;;;;4828366;29;20171;-90
2022/10/07 12:51:57;;;;;;;7.57;1.50;;;17.20;97.70;;;;;;4829208;29;20182;-94
2022/10/07 12:54:31;;;;;;;5.55;1.20;;;17.20;97.80;;;;;;4813261;29;20284;-89
2022/10/07 12:56:59;;;;;;;8.52;1.63;;;17.20;98.50;;;;;;4813409;29;20213;-95
2022/10/07 12:59:46;;;;;;;5.85;1.20;;;17.40;98.10;;;;;;4821385;29;20597;-92
2022/10/07 13:02:27;;;;;;;7.18;1.30;;;17.30;97.40;;;;;;4817379;29;20182;-92
2022/10/07 13:05:29;;;;;;;4.70;1.25;;;17.30;97.50;;;;;;4830812;29;20286;-96
2022/10/07 13:08:24;;;;;;;5.28;1.45;;;17.30;98.40;;;;;;4829919;29;20280;-94
2022/10/07 13:11:02;;;;;;;6.43;1.20;;;17.40;98.00;;;;;;4820992;29;20181;-93
2022/10/07 13:13:54;;;;;;;3.25;1.38;;;17.50;98.00;;;;;;4828496;29;20261;-93
2022/10/07 13:16:44;;;;;;;6.60;1.40;;;17.50;97.80;;;;;;4830315;29;20275;-94
2022/10/07 13:19:19;;;;;;;5.85;1.38;;;17.50;98.60;;;;;;4822587;29;20606;-93
2022/10/07 13:22:00;;;;;;;5.20;1.40;;;17.50;97.70;;;;;;4794263;29;20189;-95
2022/10/07 13:24:27;;;;;;;9.32;1.67;;;17.50;97.80;;;;;;4828709;29;20193;-95
2022/10/07 13:26:55;;;;;;;5.05;1.40;;;17.50;97.30;;;;;;4816982;29;20583;-94
2022/10/07 13:29:24;;;;;;;4.13;1.17;;;17.50;97.00;;;;;;4827755;29;20538;-93
2022/10/07 13:32:08;;;;;;;6.18;1.50;;;17.50;97.40;;;;;;4830325;29;20200;-92
2022/10/07 13:34:34;;;;;;;7.53;1.67;;;17.40;97.50;;;;;;4848510;29;20695;-95
2022/10/07 13:37:00;;;;;;;5.90;1.13;;;17.50;98.00;;;;;;4823384;29;20210;-95
2022/10/07 13:39:26;;;;;;;6.20;1.30;;;17.40;97.40;;;;;;4828012;29;20183;-95
2022/10/07 13:41:55;;;;;;;5.43;1.17;;;17.40;97.30;;;;;;4827884;29;20238;-96
2022/10/07 13:44:26;;;;;;;5.80;1.45;;;17.30;97.00;;;;;;4829825;29;20174;-93
2022/10/07 13:46:58;;;;;;;5.50;1.20;;;17.40;98.00;;;;;;4814969;29;20210;-96
2022/10/07 13:49:32;;;;;;;4.95;1.30;;;17.50;98.50;;;;;;4817085;29;20223;-93
2022/10/07 13:52:02;;;;;;;5.07;1.08;;;17.70;98.80;;;;;;4810047;29;20174;-91
2022/10/07 13:54:31;;;;;;;8.18;1.38;;;17.50;96.90;;;;;;4794568;29;20191;-95
2022/10/07 13:57:01;;;;;;;7.13;1.60;;;17.50;96.70;;;;;;4809169;29;20237;-96
2022/10/07 13:59:28;;;;;;;5.05;1.17;;;17.40;96.70;;;;;;4825208;29;20182;-95
2022/10/07 14:01:57;;;;;;;4.55;1.10;;;17.40;96.40;;;;;;4830415;29;20276;-94